createdAt,value
2023-02-25T00:01:02.374Z,99.90
2023-02-25T00:03:43.428Z,99.90
2023-02-25T00:06:21.286Z,99.90
2023-02-25T00:08:55.797Z,99.90
2023-02-25T00:11:31.477Z,99.90
2023-02-25T00:14:04.632Z,99.90
2023-02-25T00:16:49.631Z,99.90
2023-02-25T00:19:18.098Z,99.90
2023-02-25T00:21:52.005Z,99.90
2023-02-25T00:24:24.345Z,99.90
2023-02-25T00:26:57.587Z,99.90
2023-02-25T00:29:28.519Z,99.90
2023-02-25T00:32:04.206Z,99.90
2023-02-25T00:34:33.009Z,99.90
2023-02-25T00:37:00.812Z,99.90
2023-02-25T00:39:42.265Z,99.90
2023-02-25T00:42:16.025Z,99.90
2023-02-25T00:44:45.497Z,99.90
2023-02-25T00:47:14.479Z,99.90
2023-02-25T00:49:43.088Z,99.90
2023-02-25T00:52:13.168Z,99.90
2023-02-25T00:58:01.509Z,99.90
2023-02-25T01:00:55.986Z,99.90
2023-02-25T01:03:26.795Z,99.90
2023-02-25T01:06:00.740Z,99.90
2023-02-25T01:08:28.878Z,99.90
2023-02-25T01:10:58.373Z,99.90
2023-02-25T01:13:33.194Z,99.90
2023-02-25T01:16:02.515Z,99.90
2023-02-25T01:18:31.017Z,99.90
2023-02-25T01:21:00.718Z,99.90
2023-02-25T01:23:30.389Z,99.90
2023-02-25T01:26:02.885Z,99.90
2023-02-25T01:28:39.762Z,99.90
2023-02-25T01:31:27.107Z,99.90
2023-02-25T01:34:00.209Z,99.90
2023-02-25T01:36:31.296Z,99.90
2023-02-25T01:39:05.124Z,99.90
2023-02-25T01:41:36.152Z,99.90
2023-02-25T01:44:18.484Z,99.90
2023-02-25T01:46:59.399Z,99.90
2023-02-25T01:49:41.967Z,99.90
2023-02-25T01:52:21.939Z,99.90
2023-02-25T01:54:54.607Z,99.90
2023-02-25T01:57:23.898Z,99.90
2023-02-25T01:59:57.395Z,99.90
2023-02-25T02:02:30.823Z,99.90
2023-02-25T02:05:15.269Z,99.90
2023-02-25T02:11:18.786Z,99.90
2023-02-25T02:16:52.777Z,99.90
2023-02-25T02:19:32.267Z,99.90
2023-02-25T02:22:29.101Z,99.90
2023-02-25T02:25:17.155Z,99.90
2023-02-25T02:28:29.002Z,99.90
2023-02-25T02:38:17.267Z,99.90
2023-02-25T02:41:21.210Z,99.90
2023-02-25T02:43:57.220Z,99.90
2023-02-25T02:46:38.397Z,99.90
2023-02-25T02:49:19.125Z,99.90
2023-02-25T02:52:06.758Z,99.90
2023-02-25T02:54:38.359Z,99.90
2023-02-25T02:57:20.972Z,99.90
2023-02-25T03:00:15.176Z,99.90
2023-02-25T03:02:48.936Z,99.90
2023-02-25T03:05:24.917Z,99.90
2023-02-25T03:08:09.032Z,99.90
2023-02-25T03:10:53.167Z,99.90
2023-02-25T03:13:25.121Z,99.90
2023-02-25T03:15:58.719Z,99.90
2023-02-25T03:18:39.267Z,99.90
2023-02-25T03:21:21.694Z,99.90
2023-02-25T03:23:49.759Z,99.90
2023-02-25T03:26:21.875Z,99.90
2023-02-25T03:28:54.511Z,99.90
2023-02-25T03:31:59.667Z,99.90
2023-02-25T03:34:35.950Z,99.90
2023-02-25T03:37:18.653Z,99.90
2023-02-25T03:39:50.682Z,99.90
2023-02-25T03:42:27.600Z,99.90
2023-02-25T03:45:01.039Z,99.90
2023-02-25T03:47:33.127Z,99.90
2023-02-25T03:50:23.295Z,99.90
2023-02-25T03:52:55.866Z,99.90
2023-02-25T03:55:44.847Z,99.90
2023-02-25T03:58:12.411Z,99.90
2023-02-25T04:00:42.843Z,99.90
2023-02-25T04:03:10.753Z,99.90
2023-02-25T04:05:39.087Z,99.90
2023-02-25T04:08:15.873Z,99.90
2023-02-25T04:10:46.482Z,99.90
2023-02-25T04:13:16.875Z,99.90
2023-02-25T04:15:45.715Z,99.90
2023-02-25T04:18:13.484Z,99.90
2023-02-25T04:20:41.813Z,99.90
2023-02-25T04:23:13.308Z,99.90
2023-02-25T04:25:41.139Z,99.90
2023-02-25T04:28:09.054Z,99.90
2023-02-25T04:30:37.200Z,99.90
2023-02-25T04:33:05.291Z,99.90
2023-02-25T04:35:32.811Z,99.90
2023-02-25T04:38:00.295Z,99.90
2023-02-25T04:40:28.169Z,99.90
2023-02-25T04:42:55.732Z,99.90
2023-02-25T04:45:27.017Z,99.90
2023-02-25T04:47:58.142Z,99.90
2023-02-25T04:50:26.385Z,99.90
2023-02-25T04:52:54.284Z,99.90
2023-02-25T04:55:21.815Z,99.90
2023-02-25T04:57:49.341Z,99.90
2023-02-25T05:00:20.274Z,99.90
2023-02-25T05:02:48.614Z,99.90
2023-02-25T05:05:16.933Z,99.90
2023-02-25T05:07:44.577Z,99.90
2023-02-25T05:10:14.727Z,99.90
2023-02-25T05:12:42.674Z,99.90
2023-02-25T05:15:11.286Z,99.90
2023-02-25T05:17:39.080Z,99.90
2023-02-25T05:20:12.041Z,99.90
2023-02-25T05:22:40.909Z,99.90
2023-02-25T05:25:09.676Z,99.90
2023-02-25T05:27:37.414Z,99.90
2023-02-25T05:30:05.612Z,99.90
2023-02-25T05:32:33.359Z,99.90
2023-02-25T05:35:00.869Z,99.90
2023-02-25T05:37:28.572Z,99.90
2023-02-25T05:39:56.044Z,99.90
2023-02-25T05:42:23.759Z,99.90
2023-02-25T05:44:53.158Z,99.90
2023-02-25T05:47:20.950Z,99.90
2023-02-25T05:49:48.428Z,99.90
2023-02-25T05:52:16.037Z,99.90
2023-02-25T05:54:43.597Z,99.90
2023-02-25T05:57:11.086Z,99.90
2023-02-25T05:59:38.754Z,99.90
2023-02-25T06:02:06.479Z,99.90
2023-02-25T06:04:34.276Z,99.90
2023-02-25T06:07:03.365Z,99.90
2023-02-25T06:09:32.403Z,99.90
2023-02-25T06:12:00.440Z,99.90
2023-02-25T06:14:27.970Z,99.90
2023-02-25T06:16:57.000Z,99.90
2023-02-25T06:19:28.942Z,99.90
2023-02-25T06:21:56.659Z,99.90
2023-02-25T06:24:24.810Z,99.90
2023-02-25T06:26:52.264Z,99.90
2023-02-25T06:29:19.836Z,99.90
2023-02-25T06:31:47.423Z,99.90
2023-02-25T06:34:14.945Z,99.90
2023-02-25T06:36:42.529Z,99.90
2023-02-25T06:39:11.595Z,99.90
2023-02-25T06:41:39.132Z,99.90
2023-02-25T06:44:06.933Z,99.90
2023-02-25T06:46:34.407Z,99.90
2023-02-25T06:49:01.820Z,99.90
2023-02-25T06:51:29.338Z,99.90
2023-02-25T06:53:57.434Z,99.90
2023-02-25T06:56:26.809Z,99.90
2023-02-25T06:58:54.464Z,99.90
2023-02-25T07:01:21.919Z,99.90
2023-02-25T07:03:49.665Z,99.90
2023-02-25T07:06:18.502Z,99.90
2023-02-25T07:08:46.235Z,99.90
2023-02-25T07:11:18.937Z,99.90
2023-02-25T07:13:50.804Z,99.90
2023-02-25T07:16:18.809Z,99.90
2023-02-25T07:18:47.438Z,99.90
2023-02-25T07:21:15.920Z,99.90
2023-02-25T07:23:43.904Z,99.90
2023-02-25T07:26:13.273Z,99.90
2023-02-25T07:28:41.130Z,99.90
2023-02-25T07:31:14.658Z,99.90
2023-02-25T07:33:42.192Z,99.90
2023-02-25T07:36:11.669Z,99.90
2023-02-25T07:38:39.606Z,99.90
2023-02-25T07:41:11.623Z,99.90
2023-02-25T07:43:39.965Z,99.90
2023-02-25T07:46:08.636Z,99.90
2023-02-25T07:48:36.563Z,99.90
2023-02-25T07:51:27.228Z,99.90
2023-02-25T07:53:59.999Z,99.90
2023-02-25T07:56:30.158Z,99.90
2023-02-25T07:58:58.014Z,99.90
2023-02-25T08:01:33.185Z,99.90
2023-02-25T08:04:06.178Z,99.90
2023-02-25T08:06:39.796Z,99.90
2023-02-25T08:09:08.132Z,99.90
2023-02-25T08:11:35.950Z,99.90
2023-02-25T08:14:05.070Z,99.90
2023-02-25T08:16:33.593Z,99.90
2023-02-25T08:19:01.344Z,99.90
2023-02-25T08:21:30.866Z,99.90
2023-02-25T08:23:59.546Z,99.90
2023-02-25T08:26:27.858Z,99.90
2023-02-25T08:28:57.656Z,99.90
2023-02-25T08:31:29.079Z,99.90
2023-02-25T08:33:58.070Z,99.90
2023-02-25T08:36:29.045Z,99.90
2023-02-25T08:38:57.815Z,99.90
2023-02-25T08:41:28.248Z,99.90
2023-02-25T08:43:58.389Z,99.90
2023-02-25T08:46:28.297Z,99.90
2023-02-25T08:48:56.182Z,99.90
2023-02-25T08:51:26.586Z,99.90
2023-02-25T08:53:54.389Z,99.90
2023-02-25T08:56:22.753Z,99.90
2023-02-25T08:58:52.841Z,99.90
2023-02-25T09:01:24.028Z,99.90
2023-02-25T09:03:55.942Z,99.90
2023-02-25T09:06:27.918Z,99.90
2023-02-25T09:09:00.621Z,99.90
2023-02-25T09:11:28.134Z,99.90
2023-02-25T09:13:56.085Z,99.90
2023-02-25T09:16:23.643Z,99.90
2023-02-25T09:18:51.746Z,99.90
2023-02-25T09:21:20.255Z,99.90
2023-02-25T09:23:47.979Z,99.90
2023-02-25T09:26:15.494Z,99.90
2023-02-25T09:28:43.162Z,99.90
2023-02-25T09:31:13.555Z,99.90
2023-02-25T09:33:44.847Z,99.90
2023-02-25T09:36:17.422Z,99.90
2023-02-25T09:38:46.567Z,99.90
2023-02-25T09:41:28.286Z,99.90
2023-02-25T09:44:25.058Z,99.90
2023-02-25T09:47:17.434Z,99.90
2023-02-25T09:50:00.037Z,99.90
2023-02-25T09:52:54.362Z,99.90
2023-02-25T09:55:33.487Z,99.90
2023-02-25T09:58:12.282Z,99.90
2023-02-25T10:01:12.539Z,99.90
2023-02-25T10:03:56.862Z,99.90
2023-02-25T10:06:47.244Z,99.90
2023-02-25T10:09:37.472Z,99.90
2023-02-25T10:12:13.409Z,99.90
2023-02-25T10:14:52.349Z,99.90
2023-02-25T10:17:31.739Z,99.90
2023-02-25T10:20:21.549Z,99.90
2023-02-25T10:23:04.685Z,99.90
2023-02-25T10:25:40.921Z,99.90
2023-02-25T10:28:17.698Z,99.90
2023-02-25T10:30:48.533Z,99.90
2023-02-25T10:33:22.549Z,99.90
2023-02-25T10:36:00.474Z,99.90
2023-02-25T10:38:28.199Z,99.90
2023-02-25T10:40:58.320Z,99.90
2023-02-25T10:43:30.157Z,99.90
2023-02-25T10:46:09.514Z,99.90
2023-02-25T10:48:42.542Z,99.90
2023-02-25T10:51:15.252Z,99.90
2023-02-25T10:53:58.281Z,99.90
2023-02-25T10:56:30.828Z,99.90
2023-02-25T10:59:31.600Z,99.90
2023-02-25T11:02:01.156Z,99.90
2023-02-25T11:04:38.858Z,99.90
2023-02-25T11:07:38.900Z,99.90
2023-02-25T11:10:17.432Z,99.90
2023-02-25T11:12:48.698Z,99.90
2023-02-25T11:15:44.140Z,99.90
2023-02-25T11:18:23.497Z,99.90
2023-02-25T11:20:57.175Z,99.90
2023-02-25T11:23:39.597Z,99.90
2023-02-25T11:26:08.296Z,99.90
2023-02-25T11:28:55.602Z,99.90
2023-02-25T11:31:33.384Z,99.90
2023-02-25T11:34:05.217Z,99.90
2023-02-25T11:36:40.391Z,99.90
2023-02-25T11:39:18.665Z,98.90
2023-02-25T11:41:49.587Z,97.80
2023-02-25T11:44:40.168Z,97.50
2023-02-25T11:47:25.736Z,97.60
2023-02-25T11:50:06.478Z,97.70
2023-02-25T11:52:49.188Z,95.30
2023-02-25T11:55:43.888Z,91.60
2023-02-25T11:58:23.430Z,91.60
2023-02-25T12:01:17.390Z,79.40
2023-02-25T12:03:47.775Z,70.40
2023-02-25T12:06:24.383Z,62.50
2023-02-25T12:09:31.489Z,56.20
2023-02-25T12:12:23.242Z,52.40
2023-02-25T12:14:56.529Z,50.60
2023-02-25T12:17:39.235Z,48.50
2023-02-25T12:20:29.700Z,48.90
2023-02-25T12:23:25.236Z,46.50
2023-02-25T12:25:52.683Z,44.80
2023-02-25T12:28:45.681Z,44.20
2023-02-25T12:31:41.619Z,43.00
2023-02-25T12:34:35.454Z,43.30
2023-02-25T12:37:06.288Z,43.90
2023-02-25T12:39:54.933Z,44.00
2023-02-25T12:43:03.217Z,43.10
2023-02-25T12:46:03.212Z,41.00
2023-02-25T12:48:34.190Z,42.20
2023-02-25T12:51:27.540Z,41.90
2023-02-25T12:54:16.363Z,42.70
2023-02-25T12:57:05.685Z,44.20
2023-02-25T12:59:45.811Z,46.10
2023-02-25T13:02:37.513Z,47.10
2023-02-25T13:05:23.473Z,47.20
2023-02-25T13:08:18.584Z,47.50
2023-02-25T13:11:12.392Z,46.00
2023-02-25T13:13:48.726Z,46.70
2023-02-25T13:16:45.083Z,47.10
2023-02-25T13:19:50.198Z,51.70
2023-02-25T13:22:20.355Z,56.70
2023-02-25T13:25:19.845Z,57.80
2023-02-25T13:28:11.802Z,60.00
2023-02-25T13:30:47.266Z,61.20
2023-02-25T13:33:42.441Z,63.40
2023-02-25T13:36:26.608Z,63.90
2023-02-25T13:39:12.929Z,63.50
2023-02-25T13:41:59.981Z,64.10
2023-02-25T13:45:00.944Z,64.90
2023-02-25T13:47:32.000Z,68.50
2023-02-25T13:50:40.824Z,70.50
2023-02-25T13:53:25.887Z,72.20
2023-02-25T13:56:05.588Z,74.80
2023-02-25T13:58:57.692Z,76.50
2023-02-25T14:01:51.002Z,76.80
2023-02-25T14:04:38.226Z,78.40
2023-02-25T14:07:45.434Z,80.00
2023-02-25T14:10:21.790Z,80.80
2023-02-25T14:13:07.365Z,81.20
2023-02-25T14:16:08.577Z,82.60
2023-02-25T14:19:13.355Z,83.60
2023-02-25T14:22:20.236Z,85.10
2023-02-25T14:29:16.630Z,87.20
2023-02-25T14:32:22.106Z,85.30
2023-02-25T14:35:37.878Z,84.40
2023-02-25T14:38:36.729Z,84.00
2023-02-25T14:41:23.299Z,84.50
2023-02-25T14:43:58.368Z,85.30
2023-02-25T14:46:43.372Z,86.20
2023-02-25T14:49:48.583Z,87.00
2023-02-25T14:52:39.543Z,87.90
2023-02-25T14:55:22.352Z,88.70
2023-02-25T14:58:29.085Z,89.40
2023-02-25T15:01:43.207Z,90.00
2023-02-25T15:04:23.353Z,90.10
2023-02-25T15:07:41.294Z,90.50
2023-02-25T15:10:32.961Z,90.80
2023-02-25T15:13:23.407Z,91.00
2023-02-25T15:16:25.603Z,90.70
2023-02-25T15:19:17.492Z,90.80
2023-02-25T15:21:55.030Z,91.00
2023-02-25T15:24:29.076Z,91.30
2023-02-25T15:27:00.647Z,91.90
2023-02-25T15:29:33.885Z,92.10
2023-02-25T15:32:24.790Z,92.30
2023-02-25T15:35:01.305Z,92.50
2023-02-25T15:37:34.001Z,93.00
2023-02-25T15:40:17.098Z,93.40
2023-02-25T15:42:49.596Z,93.60
2023-02-25T15:45:37.358Z,93.90
2023-02-25T15:48:08.054Z,94.10
2023-02-25T15:50:47.280Z,94.10
2023-02-25T15:53:25.119Z,94.30
2023-02-25T15:58:45.521Z,95.00
2023-02-25T16:01:27.357Z,95.40
2023-02-25T16:04:06.569Z,95.30
2023-02-25T16:06:41.572Z,95.40
2023-02-25T16:09:18.377Z,95.70
2023-02-25T16:11:56.211Z,96.20
2023-02-25T16:14:33.887Z,96.10
2023-02-25T16:17:14.899Z,96.40
2023-02-25T16:19:43.443Z,96.50
2023-02-25T16:22:17.654Z,97.00
2023-02-25T16:24:54.789Z,97.20
2023-02-25T16:27:36.676Z,97.80
2023-02-25T16:30:21.188Z,98.00
2023-02-25T16:33:08.247Z,98.60
2023-02-25T16:35:55.364Z,99.00
2023-02-25T16:38:45.496Z,99.30
2023-02-25T16:41:15.162Z,99.50
2023-02-25T16:43:45.922Z,99.70
2023-02-25T16:46:22.027Z,99.90
2023-02-25T16:48:54.863Z,99.90
2023-02-25T16:51:25.000Z,99.90
2023-02-25T16:53:59.287Z,99.90
2023-02-25T16:56:34.498Z,99.90
2023-02-25T16:59:11.273Z,99.90
2023-02-25T17:01:39.882Z,99.90
2023-02-25T17:04:37.007Z,99.90
2023-02-25T17:07:22.408Z,99.90
2023-02-25T17:10:02.275Z,99.90
2023-02-25T17:12:48.375Z,99.90
2023-02-25T17:15:28.041Z,99.90
2023-02-25T17:18:02.631Z,99.90
2023-02-25T17:20:30.148Z,99.90
2023-02-25T17:23:00.001Z,99.90
2023-02-25T17:25:38.239Z,99.90
2023-02-25T17:28:08.039Z,99.90
2023-02-25T17:30:46.388Z,99.90
2023-02-25T17:33:34.788Z,99.90
2023-02-25T17:36:10.059Z,99.90
2023-02-25T17:38:39.258Z,99.90
2023-02-25T17:41:08.838Z,99.90
2023-02-25T17:43:42.023Z,99.90
2023-02-25T17:46:24.904Z,99.90
2023-02-25T17:48:57.105Z,99.90
2023-02-25T17:51:38.985Z,99.90
2023-02-25T17:54:25.266Z,99.90
2023-02-25T17:57:03.485Z,99.90
2023-02-25T18:00:09.099Z,99.90
2023-02-25T18:03:24.048Z,99.90
2023-02-25T18:06:11.918Z,99.90
2023-02-25T18:09:07.319Z,99.90
2023-02-25T18:11:40.222Z,99.90
2023-02-25T18:14:43.694Z,99.90
2023-02-25T18:24:34.571Z,99.90
2023-02-25T18:27:29.462Z,99.90
2023-02-25T18:30:18.592Z,99.90
2023-02-25T18:33:10.130Z,99.90
2023-02-25T18:35:43.421Z,99.90
2023-02-25T18:38:51.220Z,99.90
2023-02-25T18:41:18.971Z,99.90
2023-02-25T18:43:46.990Z,99.90
2023-02-25T18:46:15.721Z,99.90
2023-02-25T18:48:43.394Z,99.90
2023-02-25T18:51:14.280Z,99.90
2023-02-25T18:53:42.402Z,99.90
2023-02-25T18:56:16.308Z,99.90
2023-02-25T18:58:52.893Z,99.90
2023-02-25T19:01:27.458Z,99.90
2023-02-25T19:04:02.139Z,99.90
2023-02-25T19:06:46.854Z,99.90
2023-02-25T19:09:14.613Z,99.90
2023-02-25T19:11:42.155Z,99.90
2023-02-25T20:06:27.800Z,99.90
2023-02-25T20:17:25.102Z,99.90
2023-02-25T20:19:53.752Z,99.90
2023-02-25T20:29:47.438Z,99.90
2023-02-25T21:39:30.214Z,99.90
2023-02-25T21:41:59.011Z,99.90
2023-02-25T21:44:27.501Z,99.90
2023-02-25T21:47:01.380Z,99.90
2023-02-25T21:49:33.944Z,99.90
2023-02-25T21:52:02.382Z,99.90
2023-02-25T21:54:30.211Z,99.90
2023-02-25T21:57:08.438Z,99.90
2023-02-25T21:59:36.547Z,99.90
2023-02-25T22:02:04.288Z,99.90
2023-02-25T22:04:35.645Z,99.90
2023-02-25T22:07:03.174Z,99.90
2023-02-25T22:09:33.931Z,99.90
2023-02-25T22:12:02.719Z,99.90
2023-02-25T22:14:30.677Z,99.90
2023-02-25T22:17:01.558Z,99.90
2023-02-25T22:19:31.254Z,99.90
2023-02-25T22:21:58.769Z,99.90
2023-02-25T22:24:26.329Z,99.90
2023-02-25T22:26:58.915Z,99.90
2023-02-25T22:29:26.492Z,99.90
2023-02-25T22:31:54.164Z,99.90
2023-02-25T22:34:24.230Z,99.90
2023-02-25T22:36:59.450Z,99.90
2023-02-25T22:39:27.159Z,99.90
2023-02-25T22:41:54.648Z,99.90
2023-02-25T22:44:22.663Z,99.90
2023-02-25T22:46:52.040Z,99.90
2023-02-25T22:49:19.920Z,99.90
2023-02-25T22:51:55.747Z,99.90
2023-02-25T22:54:27.527Z,99.90
2023-02-25T22:56:56.782Z,99.90
2023-02-25T22:59:31.323Z,99.90
2023-02-25T23:01:59.705Z,99.90
2023-02-25T23:04:27.976Z,99.90
2023-02-25T23:06:58.002Z,99.90
2023-02-25T23:09:37.414Z,99.90
2023-02-25T23:12:05.821Z,99.90
2023-02-25T23:14:35.026Z,99.90
2023-02-25T23:17:02.707Z,99.90
2023-02-25T23:19:33.379Z,99.90
2023-02-25T23:22:00.936Z,99.90
2023-02-25T23:24:28.397Z,99.90
2023-02-25T23:27:00.945Z,99.90
2023-02-25T23:29:28.444Z,99.90
2023-02-25T23:31:56.185Z,99.90
2023-02-25T23:34:24.896Z,99.90
2023-02-25T23:36:56.504Z,99.90
2023-02-25T23:39:25.249Z,99.90
2023-02-25T23:41:52.704Z,99.90
2023-02-25T23:44:20.536Z,99.90
2023-02-25T23:46:48.589Z,99.90
2023-02-25T23:49:17.314Z,99.90
2023-02-25T23:51:47.469Z,99.90
2023-02-25T23:54:17.437Z,99.90
2023-02-25T23:56:45.427Z,99.90
2023-02-25T23:59:14.111Z,99.90
